Portada
METAR-TAF:

METAR-TAF

Aeropuertos :

Badajoz, España

Aeropuerto de Badajoz

latitud: 38-53N, longitud: 006-49W, altitud: 185 m

Observación

El informe se hizo hace 1 hora y 6 minutos, a las 07:00 UTC
Viento calma
Temperatura 6°C
Humedad 100%
Presión 1027 hPa
Visibilidad: 0300 m
niebla

METAR: LEBZ 280700Z 00000KT 0300 R31/0275N FG VV001 06/06 Q1027

Hora: 10:06 (08:06 UTC)

Pronóstico

El informe se hizo hace 3 horas y 6 minutos, a las 05:00 UTC
Pronóstico válido del 28 a las 06 UTC al 29 a las 06 UTC
Viento 4 kt del noreste
Visibilidad: 0500 m
a una altura de 100 ft
niebla
Evolucionando progresivamente
del 28 a las 07 UTC al 28 a las 08 UTC
Visibilidad: 4000 m
neblina
Evolucionando progresivamente
del 28 a las 08 UTC al 28 a las 09 UTC
Visibilidad 10 km o más
sin nubes por debajo de 1500 m y sin presencia de cumulonimbus.

TAF: LEBZ 280500Z 2806/2906 05004KT 0500 FG VV001 TX20/2814Z TN06/2905Z BECMG 2807/2808 4000 BR BECMG 2808/2809 CAVOK

Observaciones y pronósticos meteorológicos de más de 4000 aeropuertos (mensajes METAR y TAF).

Los puntos amarillos y rojos representan las estaciones disponibles.

Ponga el ratón en el punto deseado para ver el nombre de la estación.

Haga clic para ver las observaciones y los pronósticos meteorológicos.

Para cambiar el mapa : haga clic en los botones verdes con una cruz de color negro para hacer un zoom, en el botón verde con un guión para alejar o en las flechas verdes para mapas adyacentes.


METAR-TAF: